sensor_id;sensor_type;location;lat;lon;timestamp;P1;durP1;ratioP1;P2;durP2;ratioP2
6999;SDS011;3540;53.242;10.408;2023-09-30T00:01:00;22.23;;;4.63;;
6999;SDS011;3540;53.242;10.408;2023-09-30T00:03:27;15.90;;;4.30;;
6999;SDS011;3540;53.242;10.408;2023-09-30T00:05:53;19.23;;;4.73;;
6999;SDS011;3540;53.242;10.408;2023-09-30T00:08:19;23.27;;;4.77;;
6999;SDS011;3540;53.242;10.408;2023-09-30T00:10:44;14.40;;;4.03;;
6999;SDS011;3540;53.242;10.408;2023-09-30T00:13:11;19.73;;;5.37;;
6999;SDS011;3540;53.242;10.408;2023-09-30T00:15:37;17.33;;;4.53;;
6999;SDS011;3540;53.242;10.408;2023-09-30T00:18:03;19.50;;;4.27;;
6999;SDS011;3540;53.242;10.408;2023-09-30T00:20:30;21.63;;;4.90;;
6999;SDS011;3540;53.242;10.408;2023-09-30T00:22:56;17.27;;;4.57;;
6999;SDS011;3540;53.242;10.408;2023-09-30T00:25:21;19.67;;;4.60;;
6999;SDS011;3540;53.242;10.408;2023-09-30T00:27:47;20.53;;;4.90;;
6999;SDS011;3540;53.242;10.408;2023-09-30T00:30:13;18.93;;;4.40;;
6999;SDS011;3540;53.242;10.408;2023-09-30T00:32:39;24.10;;;5.37;;
6999;SDS011;3540;53.242;10.408;2023-09-30T00:35:05;18.07;;;4.43;;
6999;SDS011;3540;53.242;10.408;2023-09-30T00:37:38;17.53;;;4.43;;
6999;SDS011;3540;53.242;10.408;2023-09-30T00:40:05;18.17;;;4.20;;
6999;SDS011;3540;53.242;10.408;2023-09-30T00:42:31;19.67;;;4.73;;
6999;SDS011;3540;53.242;10.408;2023-09-30T00:44:57;15.97;;;3.93;;
6999;SDS011;3540;53.242;10.408;2023-09-30T00:47:22;21.97;;;4.90;;
6999;SDS011;3540;53.242;10.408;2023-09-30T00:49:49;18.27;;;4.57;;
6999;SDS011;3540;53.242;10.408;2023-09-30T00:52:17;19.27;;;5.30;;
6999;SDS011;3540;53.242;10.408;2023-09-30T00:54:43;20.23;;;5.00;;
6999;SDS011;3540;53.242;10.408;2023-09-30T00:57:09;20.90;;;4.43;;
6999;SDS011;3540;53.242;10.408;2023-09-30T00:59:36;18.90;;;4.30;;
6999;SDS011;3540;53.242;10.408;2023-09-30T01:02:02;30.83;;;5.20;;
6999;SDS011;3540;53.242;10.408;2023-09-30T01:04:30;14.47;;;4.40;;
6999;SDS011;3540;53.242;10.408;2023-09-30T01:06:56;17.73;;;4.90;;
6999;SDS011;3540;53.242;10.408;2023-09-30T01:09:25;20.23;;;4.70;;
6999;SDS011;3540;53.242;10.408;2023-09-30T01:11:51;16.70;;;4.30;;
6999;SDS011;3540;53.242;10.408;2023-09-30T01:14:26;17.70;;;4.50;;
6999;SDS011;3540;53.242;10.408;2023-09-30T01:16:55;16.73;;;4.33;;
6999;SDS011;3540;53.242;10.408;2023-09-30T01:19:22;16.73;;;4.50;;
6999;SDS011;3540;53.242;10.408;2023-09-30T01:21:52;19.60;;;4.77;;
6999;SDS011;3540;53.242;10.408;2023-09-30T01:24:24;17.40;;;4.50;;
6999;SDS011;3540;53.242;10.408;2023-09-30T01:26:50;25.73;;;5.63;;
6999;SDS011;3540;53.242;10.408;2023-09-30T01:29:16;24.57;;;5.30;;
6999;SDS011;3540;53.242;10.408;2023-09-30T01:31:42;18.93;;;4.70;;
6999;SDS011;3540;53.242;10.408;2023-09-30T01:34:08;18.00;;;4.17;;
6999;SDS011;3540;53.242;10.408;2023-09-30T01:36:35;21.07;;;5.10;;
6999;SDS011;3540;53.242;10.408;2023-09-30T01:39:01;23.57;;;5.47;;
6999;SDS011;3540;53.242;10.408;2023-09-30T01:41:28;22.43;;;5.00;;
6999;SDS011;3540;53.242;10.408;2023-09-30T01:43:53;19.10;;;4.93;;
6999;SDS011;3540;53.242;10.408;2023-09-30T01:46:19;30.43;;;6.37;;
6999;SDS011;3540;53.242;10.408;2023-09-30T01:48:45;16.57;;;4.73;;
6999;SDS011;3540;53.242;10.408;2023-09-30T01:51:10;24.23;;;5.57;;
6999;SDS011;3540;53.242;10.408;2023-09-30T01:53:36;16.43;;;5.20;;
6999;SDS011;3540;53.242;10.408;2023-09-30T01:56:02;21.87;;;5.40;;
6999;SDS011;3540;53.242;10.408;2023-09-30T01:58:27;23.33;;;5.80;;
6999;SDS011;3540;53.242;10.408;2023-09-30T02:00:53;13.40;;;4.47;;
6999;SDS011;3540;53.242;10.408;2023-09-30T02:03:19;18.43;;;4.77;;
6999;SDS011;3540;53.242;10.408;2023-09-30T02:05:44;20.13;;;5.47;;
6999;SDS011;3540;53.242;10.408;2023-09-30T02:08:10;15.37;;;4.60;;
6999;SDS011;3540;53.242;10.408;2023-09-30T02:10:38;20.27;;;4.83;;
6999;SDS011;3540;53.242;10.408;2023-09-30T02:13:04;24.07;;;5.50;;
6999;SDS011;3540;53.242;10.408;2023-09-30T02:15:31;18.03;;;4.70;;
6999;SDS011;3540;53.242;10.408;2023-09-30T02:17:57;28.07;;;5.20;;
6999;SDS011;3540;53.242;10.408;2023-09-30T02:20:22;22.33;;;5.20;;
6999;SDS011;3540;53.242;10.408;2023-09-30T02:22:50;15.37;;;4.40;;
6999;SDS011;3540;53.242;10.408;2023-09-30T02:25:17;19.40;;;4.83;;
6999;SDS011;3540;53.242;10.408;2023-09-30T02:27:43;21.03;;;5.20;;
6999;SDS011;3540;53.242;10.408;2023-09-30T02:30:10;18.90;;;5.07;;
6999;SDS011;3540;53.242;10.408;2023-09-30T02:32:39;21.37;;;5.67;;
6999;SDS011;3540;53.242;10.408;2023-09-30T02:35:05;23.97;;;5.83;;
6999;SDS011;3540;53.242;10.408;2023-09-30T02:37:33;19.70;;;5.00;;
6999;SDS011;3540;53.242;10.408;2023-09-30T02:40:04;15.37;;;4.77;;
6999;SDS011;3540;53.242;10.408;2023-09-30T02:42:34;17.70;;;4.97;;
6999;SDS011;3540;53.242;10.408;2023-09-30T02:45:06;21.60;;;5.93;;
6999;SDS011;3540;53.242;10.408;2023-09-30T02:47:33;20.10;;;5.23;;
6999;SDS011;3540;53.242;10.408;2023-09-30T02:49:59;24.47;;;5.60;;
6999;SDS011;3540;53.242;10.408;2023-09-30T02:52:25;21.73;;;5.63;;
6999;SDS011;3540;53.242;10.408;2023-09-30T02:54:51;20.03;;;5.83;;
6999;SDS011;3540;53.242;10.408;2023-09-30T02:57:17;17.63;;;5.30;;
6999;SDS011;3540;53.242;10.408;2023-09-30T02:59:43;14.00;;;5.37;;
6999;SDS011;3540;53.242;10.408;2023-09-30T03:02:09;18.30;;;5.10;;
6999;SDS011;3540;53.242;10.408;2023-09-30T03:04:36;17.67;;;5.57;;
6999;SDS011;3540;53.242;10.408;2023-09-30T03:07:02;25.93;;;6.40;;
6999;SDS011;3540;53.242;10.408;2023-09-30T03:09:28;21.20;;;5.83;;
6999;SDS011;3540;53.242;10.408;2023-09-30T03:11:53;24.37;;;5.27;;
6999;SDS011;3540;53.242;10.408;2023-09-30T03:14:21;23.13;;;5.50;;
6999;SDS011;3540;53.242;10.408;2023-09-30T03:16:48;25.77;;;6.37;;
6999;SDS011;3540;53.242;10.408;2023-09-30T03:19:13;24.13;;;6.33;;
6999;SDS011;3540;53.242;10.408;2023-09-30T03:21:41;22.43;;;6.20;;
6999;SDS011;3540;53.242;10.408;2023-09-30T03:24:07;16.37;;;5.43;;
6999;SDS011;3540;53.242;10.408;2023-09-30T03:26:33;24.70;;;5.87;;
6999;SDS011;3540;53.242;10.408;2023-09-30T03:29:00;15.70;;;5.47;;
6999;SDS011;3540;53.242;10.408;2023-09-30T03:31:26;26.77;;;6.10;;
6999;SDS011;3540;53.242;10.408;2023-09-30T03:33:51;21.03;;;5.87;;
6999;SDS011;3540;53.242;10.408;2023-09-30T03:36:21;20.73;;;5.77;;
6999;SDS011;3540;53.242;10.408;2023-09-30T03:38:50;19.50;;;5.63;;
6999;SDS011;3540;53.242;10.408;2023-09-30T03:41:19;25.63;;;6.30;;
6999;SDS011;3540;53.242;10.408;2023-09-30T03:43:45;21.93;;;5.67;;
6999;SDS011;3540;53.242;10.408;2023-09-30T03:46:10;23.17;;;5.80;;
6999;SDS011;3540;53.242;10.408;2023-09-30T03:48:37;22.83;;;5.57;;
6999;SDS011;3540;53.242;10.408;2023-09-30T03:51:16;15.00;;;4.80;;
6999;SDS011;3540;53.242;10.408;2023-09-30T03:53:42;18.63;;;5.17;;
6999;SDS011;3540;53.242;10.408;2023-09-30T03:56:09;19.90;;;5.70;;
6999;SDS011;3540;53.242;10.408;2023-09-30T03:58:38;27.47;;;5.83;;
6999;SDS011;3540;53.242;10.408;2023-09-30T04:01:10;19.23;;;5.00;;
6999;SDS011;3540;53.242;10.408;2023-09-30T04:03:39;17.63;;;5.40;;
6999;SDS011;3540;53.242;10.408;2023-09-30T04:06:05;19.80;;;5.47;;
6999;SDS011;3540;53.242;10.408;2023-09-30T04:08:34;14.60;;;4.93;;
6999;SDS011;3540;53.242;10.408;2023-09-30T04:11:00;21.80;;;5.17;;
6999;SDS011;3540;53.242;10.408;2023-09-30T04:13:28;20.20;;;5.10;;
6999;SDS011;3540;53.242;10.408;2023-09-30T04:15:54;24.97;;;5.40;;
6999;SDS011;3540;53.242;10.408;2023-09-30T04:18:20;15.63;;;5.40;;
6999;SDS011;3540;53.242;10.408;2023-09-30T04:20:46;25.67;;;5.90;;
6999;SDS011;3540;53.242;10.408;2023-09-30T04:23:12;22.37;;;5.83;;
6999;SDS011;3540;53.242;10.408;2023-09-30T04:25:38;20.63;;;5.67;;
6999;SDS011;3540;53.242;10.408;2023-09-30T04:28:05;20.60;;;6.00;;
6999;SDS011;3540;53.242;10.408;2023-09-30T04:30:31;28.47;;;6.10;;
6999;SDS011;3540;53.242;10.408;2023-09-30T04:32:59;20.77;;;5.13;;
6999;SDS011;3540;53.242;10.408;2023-09-30T04:35:25;18.07;;;5.47;;
6999;SDS011;3540;53.242;10.408;2023-09-30T04:37:51;22.17;;;5.70;;
6999;SDS011;3540;53.242;10.408;2023-09-30T04:40:17;22.27;;;5.23;;
6999;SDS011;3540;53.242;10.408;2023-09-30T04:42:46;18.33;;;4.80;;
6999;SDS011;3540;53.242;10.408;2023-09-30T04:45:13;20.20;;;5.37;;
6999;SDS011;3540;53.242;10.408;2023-09-30T04:47:41;18.43;;;5.87;;
6999;SDS011;3540;53.242;10.408;2023-09-30T04:50:09;21.10;;;5.80;;
6999;SDS011;3540;53.242;10.408;2023-09-30T04:52:36;21.93;;;5.60;;
6999;SDS011;3540;53.242;10.408;2023-09-30T04:55:04;16.90;;;5.43;;
6999;SDS011;3540;53.242;10.408;2023-09-30T04:57:30;22.63;;;5.57;;
6999;SDS011;3540;53.242;10.408;2023-09-30T04:59:56;18.97;;;5.37;;
6999;SDS011;3540;53.242;10.408;2023-09-30T05:02:23;19.80;;;5.87;;
6999;SDS011;3540;53.242;10.408;2023-09-30T05:04:49;21.07;;;5.43;;
6999;SDS011;3540;53.242;10.408;2023-09-30T05:07:14;26.07;;;5.97;;
6999;SDS011;3540;53.242;10.408;2023-09-30T05:09:40;24.70;;;5.90;;
6999;SDS011;3540;53.242;10.408;2023-09-30T05:12:06;28.17;;;5.17;;
6999;SDS011;3540;53.242;10.408;2023-09-30T05:14:32;25.50;;;5.67;;
6999;SDS011;3540;53.242;10.408;2023-09-30T05:16:58;17.57;;;4.87;;
6999;SDS011;3540;53.242;10.408;2023-09-30T05:19:24;18.47;;;4.90;;
6999;SDS011;3540;53.242;10.408;2023-09-30T05:21:49;19.20;;;5.57;;
6999;SDS011;3540;53.242;10.408;2023-09-30T05:24:15;16.87;;;5.43;;
6999;SDS011;3540;53.242;10.408;2023-09-30T05:26:44;21.97;;;5.47;;
6999;SDS011;3540;53.242;10.408;2023-09-30T05:29:10;15.43;;;5.80;;
6999;SDS011;3540;53.242;10.408;2023-09-30T05:31:35;21.73;;;5.87;;
6999;SDS011;3540;53.242;10.408;2023-09-30T05:34:02;24.77;;;6.73;;
6999;SDS011;3540;53.242;10.408;2023-09-30T05:36:29;21.17;;;5.73;;
6999;SDS011;3540;53.242;10.408;2023-09-30T05:38:54;20.03;;;5.07;;
6999;SDS011;3540;53.242;10.408;2023-09-30T05:41:20;18.53;;;5.50;;
6999;SDS011;3540;53.242;10.408;2023-09-30T05:43:46;22.37;;;5.77;;
6999;SDS011;3540;53.242;10.408;2023-09-30T05:46:12;13.30;;;4.97;;
6999;SDS011;3540;53.242;10.408;2023-09-30T05:48:38;28.37;;;5.63;;
6999;SDS011;3540;53.242;10.408;2023-09-30T05:51:06;22.27;;;5.97;;
6999;SDS011;3540;53.242;10.408;2023-09-30T05:53:32;17.40;;;4.93;;
6999;SDS011;3540;53.242;10.408;2023-09-30T05:56:01;16.47;;;5.07;;
6999;SDS011;3540;53.242;10.408;2023-09-30T05:58:26;21.17;;;5.43;;
6999;SDS011;3540;53.242;10.408;2023-09-30T06:00:52;20.63;;;5.63;;
6999;SDS011;3540;53.242;10.408;2023-09-30T06:03:18;19.77;;;5.03;;
6999;SDS011;3540;53.242;10.408;2023-09-30T06:05:46;15.50;;;5.00;;
6999;SDS011;3540;53.242;10.408;2023-09-30T06:08:13;20.60;;;5.70;;
6999;SDS011;3540;53.242;10.408;2023-09-30T06:10:40;11.77;;;4.40;;
6999;SDS011;3540;53.242;10.408;2023-09-30T06:13:09;18.20;;;4.70;;
6999;SDS011;3540;53.242;10.408;2023-09-30T06:15:44;15.97;;;4.80;;
6999;SDS011;3540;53.242;10.408;2023-09-30T06:18:11;18.50;;;4.93;;
6999;SDS011;3540;53.242;10.408;2023-09-30T06:20:40;20.90;;;4.60;;
6999;SDS011;3540;53.242;10.408;2023-09-30T06:23:06;20.20;;;5.30;;
6999;SDS011;3540;53.242;10.408;2023-09-30T06:25:32;16.97;;;4.90;;
6999;SDS011;3540;53.242;10.408;2023-09-30T06:27:58;19.17;;;5.30;;
6999;SDS011;3540;53.242;10.408;2023-09-30T06:30:24;17.83;;;4.50;;
6999;SDS011;3540;53.242;10.408;2023-09-30T06:32:54;15.43;;;4.50;;
6999;SDS011;3540;53.242;10.408;2023-09-30T06:35:25;22.07;;;5.53;;
6999;SDS011;3540;53.242;10.408;2023-09-30T06:37:51;20.57;;;4.90;;
6999;SDS011;3540;53.242;10.408;2023-09-30T06:40:17;20.67;;;4.73;;
6999;SDS011;3540;53.242;10.408;2023-09-30T06:42:44;15.10;;;4.50;;
6999;SDS011;3540;53.242;10.408;2023-09-30T06:45:10;16.03;;;4.40;;
6999;SDS011;3540;53.242;10.408;2023-09-30T06:47:38;18.33;;;5.03;;
6999;SDS011;3540;53.242;10.408;2023-09-30T06:50:08;15.20;;;4.60;;
6999;SDS011;3540;53.242;10.408;2023-09-30T06:52:41;17.67;;;4.43;;
6999;SDS011;3540;53.242;10.408;2023-09-30T06:55:10;23.00;;;5.50;;
6999;SDS011;3540;53.242;10.408;2023-09-30T06:57:39;15.43;;;4.80;;
6999;SDS011;3540;53.242;10.408;2023-09-30T07:00:09;16.87;;;4.20;;
6999;SDS011;3540;53.242;10.408;2023-09-30T07:02:37;15.87;;;4.57;;
6999;SDS011;3540;53.242;10.408;2023-09-30T07:05:12;19.60;;;4.83;;
6999;SDS011;3540;53.242;10.408;2023-09-30T07:07:39;15.13;;;4.60;;
6999;SDS011;3540;53.242;10.408;2023-09-30T07:10:08;15.70;;;4.70;;
6999;SDS011;3540;53.242;10.408;2023-09-30T07:12:34;20.90;;;5.03;;
6999;SDS011;3540;53.242;10.408;2023-09-30T07:15:09;20.10;;;5.27;;
6999;SDS011;3540;53.242;10.408;2023-09-30T07:17:38;16.53;;;4.53;;
6999;SDS011;3540;53.242;10.408;2023-09-30T07:20:04;15.33;;;4.57;;
6999;SDS011;3540;53.242;10.408;2023-09-30T07:22:30;16.63;;;4.87;;
6999;SDS011;3540;53.242;10.408;2023-09-30T07:24:56;16.73;;;4.17;;
6999;SDS011;3540;53.242;10.408;2023-09-30T07:27:23;17.53;;;4.77;;
6999;SDS011;3540;53.242;10.408;2023-09-30T07:29:49;21.60;;;4.97;;
6999;SDS011;3540;53.242;10.408;2023-09-30T07:32:15;20.57;;;4.90;;
6999;SDS011;3540;53.242;10.408;2023-09-30T07:34:41;13.77;;;4.67;;
6999;SDS011;3540;53.242;10.408;2023-09-30T07:37:06;16.67;;;4.33;;
6999;SDS011;3540;53.242;10.408;2023-09-30T07:39:33;16.57;;;4.67;;
6999;SDS011;3540;53.242;10.408;2023-09-30T07:41:59;17.13;;;4.67;;
6999;SDS011;3540;53.242;10.408;2023-09-30T07:44:26;13.23;;;3.90;;
6999;SDS011;3540;53.242;10.408;2023-09-30T07:46:51;17.13;;;4.63;;
6999;SDS011;3540;53.242;10.408;2023-09-30T07:49:17;14.93;;;3.90;;
6999;SDS011;3540;53.242;10.408;2023-09-30T07:51:43;13.37;;;4.03;;
6999;SDS011;3540;53.242;10.408;2023-09-30T07:54:11;18.77;;;4.03;;
6999;SDS011;3540;53.242;10.408;2023-09-30T07:56:37;14.83;;;4.00;;
6999;SDS011;3540;53.242;10.408;2023-09-30T07:59:02;12.30;;;3.57;;
6999;SDS011;3540;53.242;10.408;2023-09-30T08:01:28;12.97;;;3.77;;
6999;SDS011;3540;53.242;10.408;2023-09-30T08:03:55;14.63;;;3.80;;
6999;SDS011;3540;53.242;10.408;2023-09-30T08:06:21;17.33;;;4.20;;
6999;SDS011;3540;53.242;10.408;2023-09-30T08:08:46;11.47;;;3.63;;
6999;SDS011;3540;53.242;10.408;2023-09-30T08:11:12;15.30;;;4.33;;
6999;SDS011;3540;53.242;10.408;2023-09-30T08:13:38;14.37;;;3.97;;
6999;SDS011;3540;53.242;10.408;2023-09-30T08:16:04;15.70;;;3.73;;
6999;SDS011;3540;53.242;10.408;2023-09-30T08:18:29;13.97;;;4.03;;
6999;SDS011;3540;53.242;10.408;2023-09-30T08:20:55;13.07;;;3.90;;
6999;SDS011;3540;53.242;10.408;2023-09-30T08:23:21;13.40;;;3.60;;
6999;SDS011;3540;53.242;10.408;2023-09-30T08:25:46;13.77;;;3.80;;
6999;SDS011;3540;53.242;10.408;2023-09-30T08:28:12;15.60;;;3.40;;
6999;SDS011;3540;53.242;10.408;2023-09-30T08:30:38;13.03;;;4.00;;
6999;SDS011;3540;53.242;10.408;2023-09-30T08:33:04;11.37;;;3.60;;
6999;SDS011;3540;53.242;10.408;2023-09-30T08:35:31;15.63;;;3.97;;
6999;SDS011;3540;53.242;10.408;2023-09-30T08:38:05;12.50;;;3.63;;
6999;SDS011;3540;53.242;10.408;2023-09-30T08:40:31;14.53;;;3.73;;
6999;SDS011;3540;53.242;10.408;2023-09-30T08:42:57;19.47;;;4.30;;
6999;SDS011;3540;53.242;10.408;2023-09-30T08:45:22;10.97;;;3.40;;
6999;SDS011;3540;53.242;10.408;2023-09-30T08:47:49;10.40;;;3.07;;
6999;SDS011;3540;53.242;10.408;2023-09-30T08:50:15;12.97;;;3.60;;
6999;SDS011;3540;53.242;10.408;2023-09-30T08:52:43;15.50;;;3.90;;
6999;SDS011;3540;53.242;10.408;2023-09-30T08:55:10;11.80;;;3.70;;
6999;SDS011;3540;53.242;10.408;2023-09-30T08:57:37;14.73;;;3.77;;
6999;SDS011;3540;53.242;10.408;2023-09-30T09:00:07;13.50;;;3.40;;
6999;SDS011;3540;53.242;10.408;2023-09-30T09:02:38;15.07;;;3.70;;
6999;SDS011;3540;53.242;10.408;2023-09-30T09:05:04;12.00;;;3.30;;
6999;SDS011;3540;53.242;10.408;2023-09-30T09:07:31;11.27;;;3.40;;
6999;SDS011;3540;53.242;10.408;2023-09-30T09:12:36;14.97;;;3.93;;
6999;SDS011;3540;53.242;10.408;2023-09-30T09:15:04;14.23;;;3.67;;
6999;SDS011;3540;53.242;10.408;2023-09-30T09:17:41;9.63;;;2.97;;
6999;SDS011;3540;53.242;10.408;2023-09-30T09:20:18;10.30;;;3.30;;
6999;SDS011;3540;53.242;10.408;2023-09-30T09:22:49;12.80;;;3.60;;
6999;SDS011;3540;53.242;10.408;2023-09-30T09:25:20;10.63;;;3.40;;
6999;SDS011;3540;53.242;10.408;2023-09-30T09:27:49;16.53;;;3.90;;
6999;SDS011;3540;53.242;10.408;2023-09-30T09:30:25;12.67;;;3.50;;
6999;SDS011;3540;53.242;10.408;2023-09-30T09:32:52;12.73;;;3.37;;
6999;SDS011;3540;53.242;10.408;2023-09-30T09:35:21;12.63;;;3.10;;
6999;SDS011;3540;53.242;10.408;2023-09-30T09:40:33;13.30;;;3.17;;
6999;SDS011;3540;53.242;10.408;2023-09-30T09:43:00;15.70;;;3.57;;
6999;SDS011;3540;53.242;10.408;2023-09-30T09:45:30;12.80;;;3.27;;
6999;SDS011;3540;53.242;10.408;2023-09-30T09:48:00;13.50;;;3.50;;
6999;SDS011;3540;53.242;10.408;2023-09-30T09:50:26;11.03;;;3.10;;
6999;SDS011;3540;53.242;10.408;2023-09-30T09:52:52;9.30;;;3.10;;
6999;SDS011;3540;53.242;10.408;2023-09-30T09:55:24;16.97;;;3.77;;
6999;SDS011;3540;53.242;10.408;2023-09-30T09:57:50;10.17;;;2.90;;
6999;SDS011;3540;53.242;10.408;2023-09-30T10:00:17;14.40;;;3.30;;
6999;SDS011;3540;53.242;10.408;2023-09-30T10:02:49;11.17;;;3.20;;
6999;SDS011;3540;53.242;10.408;2023-09-30T10:05:15;12.93;;;3.40;;
6999;SDS011;3540;53.242;10.408;2023-09-30T10:08:00;8.67;;;3.30;;
6999;SDS011;3540;53.242;10.408;2023-09-30T10:10:39;11.63;;;2.80;;
6999;SDS011;3540;53.242;10.408;2023-09-30T10:13:05;12.53;;;2.77;;
6999;SDS011;3540;53.242;10.408;2023-09-30T10:18:00;12.27;;;2.97;;
6999;SDS011;3540;53.242;10.408;2023-09-30T10:20:37;13.50;;;3.07;;
6999;SDS011;3540;53.242;10.408;2023-09-30T10:25:47;10.53;;;3.40;;
6999;SDS011;3540;53.242;10.408;2023-09-30T10:31:10;11.00;;;2.70;;
6999;SDS011;3540;53.242;10.408;2023-09-30T10:36:31;11.17;;;2.80;;
6999;SDS011;3540;53.242;10.408;2023-09-30T10:39:06;10.47;;;2.80;;
6999;SDS011;3540;53.242;10.408;2023-09-30T10:44:32;10.10;;;3.00;;
6999;SDS011;3540;53.242;10.408;2023-09-30T10:46:58;10.93;;;3.40;;
6999;SDS011;3540;53.242;10.408;2023-09-30T10:51:54;12.40;;;3.10;;
6999;SDS011;3540;53.242;10.408;2023-09-30T10:54:27;11.40;;;2.87;;
6999;SDS011;3540;53.242;10.408;2023-09-30T10:56:54;9.70;;;2.80;;
6999;SDS011;3540;53.242;10.408;2023-09-30T10:59:23;6.20;;;2.53;;
6999;SDS011;3540;53.242;10.408;2023-09-30T11:01:50;9.97;;;2.67;;
6999;SDS011;3540;53.242;10.408;2023-09-30T11:04:20;14.07;;;2.67;;
6999;SDS011;3540;53.242;10.408;2023-09-30T11:06:46;13.10;;;3.20;;
6999;SDS011;3540;53.242;10.408;2023-09-30T11:09:15;8.90;;;2.63;;
6999;SDS011;3540;53.242;10.408;2023-09-30T11:11:47;10.87;;;2.97;;
6999;SDS011;3540;53.242;10.408;2023-09-30T11:16:53;10.47;;;2.77;;
6999;SDS011;3540;53.242;10.408;2023-09-30T11:19:21;8.93;;;2.57;;
6999;SDS011;3540;53.242;10.408;2023-09-30T11:21:48;8.63;;;3.00;;
6999;SDS011;3540;53.242;10.408;2023-09-30T11:24:15;13.27;;;2.70;;
6999;SDS011;3540;53.242;10.408;2023-09-30T11:26:41;16.47;;;3.13;;
6999;SDS011;3540;53.242;10.408;2023-09-30T11:29:08;9.70;;;2.30;;
6999;SDS011;3540;53.242;10.408;2023-09-30T11:31:46;9.87;;;2.50;;
6999;SDS011;3540;53.242;10.408;2023-09-30T11:34:13;7.83;;;2.50;;
6999;SDS011;3540;53.242;10.408;2023-09-30T11:36:51;9.53;;;2.80;;
6999;SDS011;3540;53.242;10.408;2023-09-30T11:41:49;9.10;;;2.67;;
6999;SDS011;3540;53.242;10.408;2023-09-30T11:44:15;9.57;;;2.50;;
6999;SDS011;3540;53.242;10.408;2023-09-30T11:49:40;7.70;;;2.50;;
6999;SDS011;3540;53.242;10.408;2023-09-30T11:52:10;7.70;;;2.53;;
6999;SDS011;3540;53.242;10.408;2023-09-30T11:54:45;7.47;;;2.20;;
6999;SDS011;3540;53.242;10.408;2023-09-30T11:57:12;8.53;;;2.60;;
6999;SDS011;3540;53.242;10.408;2023-09-30T11:59:42;5.53;;;2.20;;
6999;SDS011;3540;53.242;10.408;2023-09-30T12:02:10;7.20;;;2.43;;
6999;SDS011;3540;53.242;10.408;2023-09-30T12:04:37;11.53;;;2.60;;
6999;SDS011;3540;53.242;10.408;2023-09-30T12:07:03;7.70;;;2.30;;
6999;SDS011;3540;53.242;10.408;2023-09-30T12:09:29;6.43;;;2.30;;
6999;SDS011;3540;53.242;10.408;2023-09-30T12:11:56;9.10;;;2.57;;
6999;SDS011;3540;53.242;10.408;2023-09-30T12:14:22;8.13;;;2.43;;
6999;SDS011;3540;53.242;10.408;2023-09-30T12:16:49;6.30;;;2.47;;
6999;SDS011;3540;53.242;10.408;2023-09-30T12:19:18;6.80;;;2.10;;
6999;SDS011;3540;53.242;10.408;2023-09-30T12:21:45;9.97;;;2.10;;
6999;SDS011;3540;53.242;10.408;2023-09-30T12:24:13;7.17;;;2.33;;
6999;SDS011;3540;53.242;10.408;2023-09-30T12:26:44;7.43;;;2.23;;
6999;SDS011;3540;53.242;10.408;2023-09-30T12:29:16;6.23;;;2.17;;
6999;SDS011;3540;53.242;10.408;2023-09-30T12:31:46;5.23;;;2.20;;
6999;SDS011;3540;53.242;10.408;2023-09-30T12:34:13;7.47;;;2.47;;
6999;SDS011;3540;53.242;10.408;2023-09-30T12:36:39;9.33;;;2.63;;
6999;SDS011;3540;53.242;10.408;2023-09-30T12:39:04;4.77;;;2.00;;
6999;SDS011;3540;53.242;10.408;2023-09-30T12:41:36;9.00;;;2.60;;
6999;SDS011;3540;53.242;10.408;2023-09-30T12:44:06;5.07;;;2.00;;
6999;SDS011;3540;53.242;10.408;2023-09-30T12:46:32;6.50;;;2.23;;
6999;SDS011;3540;53.242;10.408;2023-09-30T12:49:01;8.23;;;2.43;;
6999;SDS011;3540;53.242;10.408;2023-09-30T12:51:33;8.30;;;2.30;;
6999;SDS011;3540;53.242;10.408;2023-09-30T12:54:00;7.57;;;2.17;;
6999;SDS011;3540;53.242;10.408;2023-09-30T12:56:26;7.77;;;2.20;;
6999;SDS011;3540;53.242;10.408;2023-09-30T12:58:54;7.73;;;2.70;;
6999;SDS011;3540;53.242;10.408;2023-09-30T13:01:20;7.40;;;2.23;;
6999;SDS011;3540;53.242;10.408;2023-09-30T13:03:46;6.43;;;2.20;;
6999;SDS011;3540;53.242;10.408;2023-09-30T13:06:12;5.43;;;2.07;;
6999;SDS011;3540;53.242;10.408;2023-09-30T13:08:39;9.37;;;2.40;;
6999;SDS011;3540;53.242;10.408;2023-09-30T13:11:04;9.60;;;2.37;;
6999;SDS011;3540;53.242;10.408;2023-09-30T13:13:31;7.93;;;1.97;;
6999;SDS011;3540;53.242;10.408;2023-09-30T13:16:01;7.33;;;2.40;;
6999;SDS011;3540;53.242;10.408;2023-09-30T13:18:27;5.37;;;2.10;;
6999;SDS011;3540;53.242;10.408;2023-09-30T13:20:53;8.70;;;2.10;;
6999;SDS011;3540;53.242;10.408;2023-09-30T13:23:19;6.20;;;2.33;;
6999;SDS011;3540;53.242;10.408;2023-09-30T13:25:45;8.13;;;2.37;;
6999;SDS011;3540;53.242;10.408;2023-09-30T13:28:12;9.03;;;2.20;;
6999;SDS011;3540;53.242;10.408;2023-09-30T13:30:38;7.70;;;2.00;;
6999;SDS011;3540;53.242;10.408;2023-09-30T13:33:04;8.63;;;2.23;;
6999;SDS011;3540;53.242;10.408;2023-09-30T13:35:30;7.50;;;2.23;;
6999;SDS011;3540;53.242;10.408;2023-09-30T13:37:56;4.73;;;2.03;;
6999;SDS011;3540;53.242;10.408;2023-09-30T13:40:22;4.67;;;2.07;;
6999;SDS011;3540;53.242;10.408;2023-09-30T13:42:48;6.00;;;2.30;;
6999;SDS011;3540;53.242;10.408;2023-09-30T13:45:14;5.77;;;1.83;;
6999;SDS011;3540;53.242;10.408;2023-09-30T13:47:42;6.80;;;2.40;;
6999;SDS011;3540;53.242;10.408;2023-09-30T13:50:08;7.00;;;2.20;;
6999;SDS011;3540;53.242;10.408;2023-09-30T13:52:37;6.00;;;2.37;;
6999;SDS011;3540;53.242;10.408;2023-09-30T13:55:02;5.10;;;2.00;;
6999;SDS011;3540;53.242;10.408;2023-09-30T13:57:29;5.67;;;2.10;;
6999;SDS011;3540;53.242;10.408;2023-09-30T13:59:55;5.37;;;2.00;;
6999;SDS011;3540;53.242;10.408;2023-09-30T14:02:21;5.00;;;1.73;;
6999;SDS011;3540;53.242;10.408;2023-09-30T14:04:47;4.53;;;2.30;;
6999;SDS011;3540;53.242;10.408;2023-09-30T14:07:13;4.83;;;1.93;;
6999;SDS011;3540;53.242;10.408;2023-09-30T14:09:39;7.70;;;2.10;;
6999;SDS011;3540;53.242;10.408;2023-09-30T14:12:05;5.63;;;2.10;;
6999;SDS011;3540;53.242;10.408;2023-09-30T14:14:31;5.00;;;2.00;;
6999;SDS011;3540;53.242;10.408;2023-09-30T14:16:59;6.93;;;2.37;;
6999;SDS011;3540;53.242;10.408;2023-09-30T14:19:24;11.13;;;2.40;;
6999;SDS011;3540;53.242;10.408;2023-09-30T14:21:50;9.57;;;2.33;;
6999;SDS011;3540;53.242;10.408;2023-09-30T14:24:16;5.60;;;1.97;;
6999;SDS011;3540;53.242;10.408;2023-09-30T14:26:42;6.73;;;2.20;;
6999;SDS011;3540;53.242;10.408;2023-09-30T14:29:09;7.07;;;2.03;;
6999;SDS011;3540;53.242;10.408;2023-09-30T14:31:37;7.53;;;2.30;;
6999;SDS011;3540;53.242;10.408;2023-09-30T14:34:03;5.73;;;2.40;;
6999;SDS011;3540;53.242;10.408;2023-09-30T14:36:30;7.67;;;2.20;;
6999;SDS011;3540;53.242;10.408;2023-09-30T14:38:57;7.67;;;2.50;;
6999;SDS011;3540;53.242;10.408;2023-09-30T14:41:24;6.60;;;2.00;;
6999;SDS011;3540;53.242;10.408;2023-09-30T14:43:49;6.90;;;2.03;;
6999;SDS011;3540;53.242;10.408;2023-09-30T14:46:15;5.57;;;2.10;;
6999;SDS011;3540;53.242;10.408;2023-09-30T14:48:40;6.27;;;1.77;;
6999;SDS011;3540;53.242;10.408;2023-09-30T14:51:07;7.27;;;2.10;;
6999;SDS011;3540;53.242;10.408;2023-09-30T14:53:33;6.63;;;2.20;;
6999;SDS011;3540;53.242;10.408;2023-09-30T14:55:58;7.90;;;2.10;;
6999;SDS011;3540;53.242;10.408;2023-09-30T14:58:24;6.30;;;2.27;;
6999;SDS011;3540;53.242;10.408;2023-09-30T15:00:50;6.30;;;1.97;;
6999;SDS011;3540;53.242;10.408;2023-09-30T15:03:15;6.20;;;1.80;;
6999;SDS011;3540;53.242;10.408;2023-09-30T15:05:41;5.10;;;2.00;;
6999;SDS011;3540;53.242;10.408;2023-09-30T15:08:07;6.53;;;2.30;;
6999;SDS011;3540;53.242;10.408;2023-09-30T15:10:35;5.17;;;2.10;;
6999;SDS011;3540;53.242;10.408;2023-09-30T15:13:01;5.50;;;1.80;;
6999;SDS011;3540;53.242;10.408;2023-09-30T15:15:27;4.70;;;1.93;;
6999;SDS011;3540;53.242;10.408;2023-09-30T15:17:52;8.43;;;2.03;;
6999;SDS011;3540;53.242;10.408;2023-09-30T15:20:19;7.47;;;2.00;;